Time;durP1;ratioP1;P1;durP2;ratioP2;P2;SDS_P1;SDS_P2;PMS_P1;PMS_P2;Temp;Humidity;BMP_temperature;BMP_pressure;BME280_temperature;BME280_humidity;BME280_pressure;Samples;Min_cycle;Max_cycle;Signal;HPM_P1;HPM_P2
2022/07/18 00:01:59;;;;;;;1.67;0.43;;;;;;;16.28;63.24;101001.44;5091390;28;20484;-51
2022/07/18 00:04:26;;;;;;;0.80;0.50;;;;;;;16.27;63.81;101005.94;5094762;28;20448;-51
2022/07/18 00:06:53;;;;;;;0.70;0.70;;;;;;;16.24;63.52;100998.03;5095574;28;20457;-52
2022/07/18 00:09:22;;;;;;;4.67;2.00;;;;;;;15.96;64.60;101002.75;5093043;28;20469;-51
2022/07/18 00:11:50;;;;;;;2.67;0.50;;;;;;;15.93;64.42;100995.69;5087713;28;20987;-51
2022/07/18 00:14:17;;;;;;;1.07;0.40;;;;;;;15.97;64.35;101001.81;5095373;28;20445;-51
2022/07/18 00:16:44;;;;;;;3.80;0.60;;;;;;;16.13;63.76;101007.44;5095138;28;20927;-51
2022/07/18 00:19:10;;;;;;;0.60;0.50;;;;;;;16.00;64.32;101005.22;5095149;28;20488;-50
2022/07/18 00:21:37;;;;;;;0.80;0.70;;;;;;;16.04;64.11;101006.00;5094998;28;20491;-51
2022/07/18 00:24:04;;;;;;;1.70;0.40;;;;;;;15.95;64.47;101003.69;5081883;28;20453;-51
2022/07/18 00:26:30;;;;;;;0.70;0.43;;;;;;;15.97;64.38;100997.31;5081789;28;20457;-52
2022/07/18 00:28:57;;;;;;;0.50;0.30;;;;;;;15.88;64.67;101007.53;5095288;28;20469;-51
2022/07/18 00:31:23;;;;;;;0.80;0.50;;;;;;;15.92;64.75;101001.13;5092616;28;20833;-51
2022/07/18 00:33:50;;;;;;;33.80;0.53;;;;;;;15.87;64.84;101000.41;5094888;28;20453;-51
2022/07/18 00:36:16;;;;;;;0.80;0.73;;;;;;;15.65;65.20;100995.91;5094563;28;20949;-51
2022/07/18 00:38:43;;;;;;;0.90;0.70;;;;;;;15.66;65.26;100992.28;5094395;28;20489;-51
2022/07/18 00:41:13;;;;;;;0.73;0.47;;;;;;;15.77;64.99;100999.91;5092404;28;20499;-51
2022/07/18 00:43:39;;;;;;;2.03;0.50;;;;;;;15.75;65.04;100991.03;5094625;28;20942;-51
2022/07/18 00:46:06;;;;;;;4.30;1.10;;;;;;;15.73;65.72;100995.59;5094590;28;20449;-51
2022/07/18 00:48:32;;;;;;;1.07;0.97;;;;;;;15.61;66.41;100994.25;5094481;28;20465;-50
2022/07/18 00:50:59;;;;;;;0.60;0.30;;;;;;;15.69;66.06;100996.66;5094549;28;20447;-51
2022/07/18 00:53:25;;;;;;;3.43;0.60;;;;;;;15.65;66.44;100990.53;5094167;28;20445;-51
2022/07/18 00:55:53;;;;;;;3.33;0.90;;;;;;;15.66;66.52;100994.97;5094546;28;20455;-51
2022/07/18 00:58:20;;;;;;;2.07;1.00;;;;;;;15.52;66.63;100999.06;5094459;28;20472;-51
2022/07/18 01:03:31;;;;;;;0.50;0.40;;;;;;;15.49;66.89;100991.13;5094051;28;20445;-50
2022/07/18 01:05:57;;;;;;;0.97;0.50;;;;;;;15.38;67.04;100991.53;5094465;28;20449;-50
2022/07/18 01:08:26;;;;;;;0.87;0.40;;;;;;;15.44;67.02;100990.44;5094636;28;20471;-51
2022/07/18 01:10:54;;;;;;;2.73;0.53;;;;;;;15.45;67.35;100992.16;5084257;28;20445;-51
2022/07/18 01:13:21;;;;;;;0.83;0.53;;;;;;;15.49;67.30;100988.44;5094103;28;20449;-51
2022/07/18 01:15:47;;;;;;;0.50;0.40;;;;;;;15.38;68.16;100994.22;5093224;28;20451;-51
2022/07/18 01:18:14;;;;;;;0.40;0.30;;;;;;;15.23;68.50;100992.97;5093731;28;21081;-50
2022/07/18 01:20:40;;;;;;;0.60;0.40;;;;;;;15.14;68.82;100997.78;5093848;28;20449;-50
2022/07/18 01:23:07;;;;;;;0.50;0.40;;;;;;;15.17;68.88;100990.50;5093585;28;20798;-50
2022/07/18 01:25:34;;;;;;;0.40;0.30;;;;;;;15.11;69.17;100993.44;5087413;28;20453;-51
2022/07/18 01:28:00;;;;;;;0.80;0.80;;;;;;;14.94;69.26;100998.47;5086707;28;20473;-51
2022/07/18 01:30:27;;;;;;;0.40;0.30;;;;;;;14.96;69.44;100996.66;5093562;28;20465;-51
2022/07/18 01:32:58;;;;;;;0.60;0.50;;;;;;;15.02;69.69;100993.75;5091506;28;20453;-51
2022/07/18 01:35:25;;;;;;;1.80;0.53;;;;;;;15.05;69.71;100989.16;5080641;28;20437;-51
2022/07/18 01:37:54;;;;;;;0.60;0.53;;;;;;;14.93;70.00;100997.59;5093304;28;20572;-51
2022/07/18 01:40:21;;;;;;;0.80;0.70;;;;;;;14.89;69.99;100992.44;5090720;28;20458;-50
2022/07/18 01:42:48;;;;;;;0.90;0.70;;;;;;;14.74;70.56;100992.03;5093715;28;20930;-50
2022/07/18 01:45:15;;;;;;;5.23;0.60;;;;;;;14.80;70.62;100989.16;5093359;28;20876;-50
2022/07/18 01:47:41;;;;;;;2.60;1.73;;;;;;;14.74;70.88;100992.03;5093253;28;20465;-51
2022/07/18 01:50:10;;;;;;;0.60;0.40;;;;;;;14.75;70.71;100992.91;5093172;28;20949;-51
2022/07/18 01:52:36;;;;;;;0.50;0.30;;;;;;;14.76;70.38;100991.97;5093235;28;20453;-51
2022/07/18 01:55:04;;;;;;;5.90;0.50;;;;;;;14.85;70.24;101001.50;5093489;28;20453;-51
2022/07/18 01:57:31;;;;;;;6.03;1.27;;;;;;;14.78;70.53;101000.81;5092962;28;20471;-51
2022/07/18 01:59:57;;;;;;;0.60;0.40;;;;;;;14.80;70.97;100994.50;5092949;28;20445;-50
2022/07/18 02:02:24;;;;;;;1.17;0.70;;;;;;;14.73;72.21;100998.31;5093192;28;20485;-50
2022/07/18 02:04:59;;;;;;;0.80;0.60;;;;;;;14.56;71.96;100994.47;5093160;28;20452;-50
2022/07/18 02:07:27;;;;;;;0.60;0.37;;;;;;;14.50;72.08;100995.53;5093071;28;20440;-50
2022/07/18 02:09:55;;;;;;;17.50;0.87;;;;;;;14.49;72.47;100997.34;5086689;28;20454;-51
2022/07/18 02:12:22;;;;;;;1.77;0.87;;;;;;;14.55;72.73;100990.03;5089762;28;20459;-50
2022/07/18 02:14:49;;;;;;;21.43;0.77;;;;;;;14.54;72.64;100989.19;5093016;28;20452;-51
2022/07/18 02:17:16;;;;;;;0.63;0.40;;;;;;;14.47;72.30;100988.50;5092814;28;20822;-50
2022/07/18 02:19:43;;;;;;;0.57;0.50;;;;;;;14.49;73.33;100991.09;5092869;28;20472;-50
2022/07/18 02:22:09;;;;;;;0.60;0.50;;;;;;;14.39;73.25;100992.28;5092568;28;20863;-51
2022/07/18 02:24:36;;;;;;;0.60;0.50;;;;;;;14.36;73.36;100992.41;5092445;28;20451;-51
2022/07/18 02:27:04;;;;;;;6.03;0.90;;;;;;;14.32;73.83;100988.97;5077953;28;20942;-51
2022/07/18 02:29:30;;;;;;;0.50;0.40;;;;;;;14.31;73.98;100978.31;5092712;28;20464;-50
2022/07/18 02:31:57;;;;;;;3.50;0.77;;;;;;;13.96;75.47;100977.63;5090337;28;20463;-50
2022/07/18 02:34:23;;;;;;;7.70;1.10;;;;;;;14.09;75.18;100978.13;5092789;28;20454;-50
2022/07/18 02:36:51;;;;;;;0.63;0.60;;;;;;;14.28;74.60;100979.31;5092484;28;20498;-50
2022/07/18 02:39:17;;;;;;;2.97;0.97;;;;;;;14.19;74.66;100977.78;5090785;28;20846;-50
2022/07/18 02:41:44;;;;;;;1.90;0.90;;;;;;;14.14;74.78;100982.44;5091389;28;21007;-50
2022/07/18 02:44:10;;;;;;;2.17;0.40;;;;;;;14.05;74.70;100980.03;5092674;28;20519;-50
2022/07/18 02:46:37;;;;;;;0.93;0.60;;;;;;;14.04;74.46;100977.41;5092094;28;20472;-50
2022/07/18 02:49:03;;;;;;;0.60;0.33;;;;;;;14.13;74.78;100975.31;5092412;28;20465;-50
2022/07/18 02:51:30;;;;;;;0.57;0.50;;;;;;;14.14;74.64;100987.78;5092781;28;20449;-51
2022/07/18 02:53:56;;;;;;;0.50;0.43;;;;;;;14.10;75.47;100978.06;5092103;28;20816;-51
2022/07/18 02:56:23;;;;;;;3.60;0.97;;;;;;;14.14;75.07;100987.78;5092125;28;20845;-51
2022/07/18 02:58:49;;;;;;;0.90;0.80;;;;;;;14.02;75.75;100989.97;5092482;28;20472;-50
2022/07/18 03:01:16;;;;;;;1.37;0.90;;;;;;;14.10;75.38;100990.56;5091999;28;20449;-51
2022/07/18 03:03:42;;;;;;;0.50;0.40;;;;;;;14.03;76.26;100987.22;5092366;28;20453;-51
2022/07/18 03:06:09;;;;;;;0.50;0.30;;;;;;;13.95;76.28;100991.94;5091963;28;20548;-51
2022/07/18 03:08:35;;;;;;;0.70;0.60;;;;;;;13.96;75.71;100993.69;5092207;28;20473;-52
2022/07/18 03:11:02;;;;;;;9.10;1.20;;;;;;;14.03;75.81;100991.72;5082522;28;20449;-51
2022/07/18 03:13:28;;;;;;;1.07;0.57;;;;;;;13.92;76.30;100992.03;5092411;28;20440;-51
2022/07/18 03:15:55;;;;;;;1.20;0.73;;;;;;;13.87;76.51;100980.63;5091833;28;20455;-50
2022/07/18 03:18:22;;;;;;;4.10;0.70;;;;;;;13.87;76.41;100984.16;5092194;28;20916;-52
2022/07/18 03:20:48;;;;;;;2.13;0.60;;;;;;;13.74;77.28;100990.81;5093534;28;20452;-52
2022/07/18 03:23:15;;;;;;;0.70;0.60;;;;;;;13.82;76.95;100995.91;5092934;28;20488;-51
2022/07/18 03:25:41;;;;;;;0.80;0.80;;;;;;;13.75;77.84;100994.34;5084948;28;20515;-51
2022/07/18 03:28:08;;;;;;;2.30;1.27;;;;;;;13.73;77.21;100991.72;5085791;28;20464;-52
2022/07/18 03:30:34;;;;;;;0.90;0.57;;;;;;;13.84;77.37;100994.06;5091953;28;20465;-51
2022/07/18 03:33:01;;;;;;;2.13;0.60;;;;;;;13.62;77.02;100996.53;5089810;28;20998;-52
2022/07/18 03:35:32;;;;;;;0.60;0.50;;;;;;;13.74;77.22;100998.81;5091862;28;20441;-51
2022/07/18 03:37:58;;;;;;;0.70;0.40;;;;;;;13.72;77.08;100992.66;5092294;28;20468;-51
2022/07/18 03:40:25;;;;;;;0.60;0.43;;;;;;;13.62;77.80;100997.41;5093618;28;20448;-50
2022/07/18 03:42:51;;;;;;;0.60;0.60;;;;;;;13.66;77.61;100991.94;5095600;28;20496;-52
2022/07/18 03:45:17;;;;;;;2.20;0.73;;;;;;;13.75;77.56;101000.56;5095695;28;20444;-52
2022/07/18 03:47:44;;;;;;;4.87;1.13;;;;;;;13.78;77.62;101005.81;5095591;28;20464;-51
2022/07/18 03:50:10;;;;;;;0.87;0.77;;;;;;;13.89;77.58;101000.16;5095346;28;20449;-50
2022/07/18 03:52:37;;;;;;;0.63;0.50;;;;;;;13.80;77.36;101001.28;5095684;28;20444;-52
2022/07/18 03:55:04;;;;;;;1.77;0.90;;;;;;;13.84;76.99;101011.00;5095728;28;20445;-52
2022/07/18 03:57:31;;;;;;;19.03;1.10;;;;;;;13.53;78.12;101005.66;5095296;28;20445;-50
2022/07/18 03:59:57;;;;;;;0.80;0.80;;;;;;;13.77;77.79;101005.88;5095776;28;20539;-51
2022/07/18 04:02:23;;;;;;;0.60;0.47;;;;;;;13.16;80.69;101008.50;5095348;28;20491;-52
2022/07/18 04:04:50;;;;;;;0.57;0.40;;;;;;;13.50;80.08;101004.88;5095252;28;20472;-51
2022/07/18 04:07:16;;;;;;;0.80;0.60;;;;;;;13.49;79.78;101006.69;5095380;28;20445;-52
2022/07/18 04:09:43;;;;;;;0.50;0.30;;;;;;;13.69;79.09;101006.09;5090006;28;20973;-52
2022/07/18 04:12:09;;;;;;;4.40;1.00;;;;;;;13.71;79.81;101004.28;5090677;28;20445;-52
2022/07/18 04:14:36;;;;;;;0.60;0.47;;;;;;;13.70;80.08;101006.97;5095338;28;20453;-52
2022/07/18 04:17:02;;;;;;;7.10;0.50;;;;;;;13.69;80.15;101010.56;5095241;28;20448;-51
2022/07/18 04:19:29;;;;;;;0.83;0.77;;;;;;;13.88;79.89;101006.44;5095394;28;20471;-52
2022/07/18 04:21:55;;;;;;;5.70;0.77;;;;;;;14.07;78.70;101009.38;5094807;28;20488;-53
2022/07/18 04:24:21;;;;;;;6.47;0.57;;;;;;;14.19;78.73;101009.88;5095022;28;20440;-52
2022/07/18 04:26:48;;;;;;;5.37;0.67;;;;;;;14.23;78.88;101008.84;5081811;28;20445;-52
2022/07/18 04:29:15;;;;;;;1.00;0.40;;;;;;;14.18;78.59;101017.94;5095416;28;20469;-51
2022/07/18 04:31:41;;;;;;;4.00;0.60;;;;;;;14.20;78.92;101019.66;5092555;28;20461;-52
2022/07/18 04:34:08;;;;;;;0.93;0.60;;;;;;;14.47;78.34;101023.28;5094371;28;20473;-52
2022/07/18 04:36:34;;;;;;;0.60;0.50;;;;;;;14.60;77.58;101023.75;5094825;28;20451;-52
2022/07/18 04:39:00;;;;;;;0.80;0.50;;;;;;;14.63;78.41;101023.63;5094474;28;20480;-52
2022/07/18 04:41:27;;;;;;;1.03;0.60;;;;;;;14.91;78.03;101004.81;5091737;28;20459;-51
2022/07/18 04:44:01;;;;;;;0.60;0.50;;;;;;;15.24;76.27;101013.47;5094763;28;20433;-52
2022/07/18 04:46:27;;;;;;;10.23;1.37;;;;;;;15.74;74.71;101009.88;5094381;28;20891;-52
2022/07/18 04:48:54;;;;;;;6.80;0.60;;;;;;;15.99;73.77;101006.19;5094389;28;20465;-52
2022/07/18 04:51:25;;;;;;;1.77;0.57;;;;;;;16.67;71.20;101000.72;5093663;28;20952;-52
2022/07/18 04:53:54;;;;;;;1.20;0.80;;;;;;;17.34;68.94;100997.81;5094576;28;20818;-53
2022/07/18 04:56:21;;;;;;;2.40;0.83;;;;;;;17.87;66.83;101005.25;5094389;28;20449;-52
2022/07/18 04:58:47;;;;;;;0.80;0.50;;;;;;;18.16;65.69;101004.75;5093911;28;20465;-53
2022/07/18 05:01:14;;;;;;;0.70;0.40;;;;;;;18.53;64.42;101011.88;5094002;28;20449;-51
2022/07/18 05:03:41;;;;;;;22.13;0.73;;;;;;;18.81;62.53;100999.75;5094354;28;20859;-53
2022/07/18 05:06:07;;;;;;;0.87;0.60;;;;;;;19.28;61.45;101010.72;5094204;28;20453;-50
2022/07/18 05:08:34;;;;;;;4.30;0.70;;;;;;;19.42;60.36;101005.47;5094039;28;20559;-51
2022/07/18 05:11:00;;;;;;;11.60;0.90;;;;;;;19.66;60.02;101006.00;5084140;28;20449;-51
2022/07/18 05:13:27;;;;;;;3.03;0.70;;;;;;;20.03;58.61;101004.84;5094020;28;20449;-52
2022/07/18 05:15:53;;;;;;;4.00;0.80;;;;;;;20.28;56.92;101011.53;5080598;28;20556;-51
2022/07/18 05:18:20;;;;;;;3.13;0.83;;;;;;;20.47;56.07;101001.44;5094037;28;20469;-52
2022/07/18 05:20:46;;;;;;;14.10;1.53;;;;;;;20.64;54.69;101005.84;5093805;28;20445;-51
2022/07/18 05:23:16;;;;;;;4.53;1.03;;;;;;;20.89;53.37;101005.28;5093833;28;20510;-52
2022/07/18 05:25:42;;;;;;;1.00;0.90;;;;;;;21.06;52.74;101006.94;5086485;28;20571;-52
2022/07/18 05:28:09;;;;;;;1.60;0.60;;;;;;;21.10;52.62;101006.66;5087606;28;20475;-52
2022/07/18 05:30:35;;;;;;;0.90;0.60;;;;;;;21.11;52.90;101007.56;5085993;28;20947;-52
2022/07/18 05:33:02;;;;;;;0.60;0.60;;;;;;;21.49;52.33;101010.63;5087858;28;20456;-52
2022/07/18 05:35:29;;;;;;;4.17;1.13;;;;;;;21.53;52.30;101004.06;5095777;28;20948;-52
2022/07/18 05:37:55;;;;;;;4.20;0.80;;;;;;;21.77;51.52;101007.91;5093815;28;20465;-52
2022/07/18 05:40:22;;;;;;;10.13;1.30;;;;;;;21.71;51.65;101004.75;5090978;28;20500;-52
2022/07/18 05:42:49;;;;;;;8.13;0.70;;;;;;;21.24;52.44;101006.72;5093413;28;20496;-52
2022/07/18 05:45:21;;;;;;;6.00;1.17;;;;;;;21.78;51.32;101004.22;5093716;28;20437;-52
2022/07/18 05:47:47;;;;;;;2.83;0.70;;;;;;;21.80;51.21;101009.56;5093470;28;20505;-52
2022/07/18 05:50:14;;;;;;;0.80;0.80;;;;;;;21.79;51.63;101003.28;5093560;28;20449;-52
2022/07/18 05:52:40;;;;;;;0.73;0.63;;;;;;;21.66;51.55;100999.63;5093052;28;20449;-52
2022/07/18 05:55:07;;;;;;;4.43;0.70;;;;;;;22.23;50.02;101001.41;5093050;28;20456;-52
2022/07/18 05:57:35;;;;;;;0.97;0.87;;;;;;;22.54;50.13;101001.09;5093147;28;20471;-52
2022/07/18 06:00:07;;;;;;;4.30;0.83;;;;;;;22.63;48.76;101003.22;5093267;28;20449;-52
2022/07/18 06:02:33;;;;;;;0.83;0.70;;;;;;;22.64;49.00;101002.22;5092777;28;20584;-52
2022/07/18 06:05:00;;;;;;;22.93;1.77;;;;;;;22.81;48.74;101001.09;5093000;28;20449;-51
2022/07/18 06:07:47;;;;;;;0.83;0.70;;;;;;;22.44;48.68;101000.84;5092545;28;20986;-51
2022/07/18 06:10:14;;;;;;;4.13;1.63;;;;;;;23.07;47.83;100998.47;5083651;28;20446;-51
2022/07/18 06:12:41;;;;;;;19.43;1.00;;;;;;;23.07;47.39;100999.31;5079121;28;20805;-51
2022/07/18 06:15:08;;;;;;;0.60;0.40;;;;;;;23.21;46.86;101003.78;5091776;28;20445;-52
2022/07/18 06:17:35;;;;;;;0.60;0.43;;;;;;;23.25;46.11;101000.75;5079471;28;20480;-51
2022/07/18 06:20:05;;;;;;;1.73;0.40;;;;;;;22.38;48.37;101001.25;5092620;28;20870;-52
2022/07/18 06:22:31;;;;;;;28.43;0.60;;;;;;;23.40;47.14;100992.50;5092387;28;20484;-52
2022/07/18 06:24:57;;;;;;;0.73;0.70;;;;;;;23.19;46.65;100987.63;5091076;28;20452;-52
2022/07/18 06:27:24;;;;;;;1.90;0.90;;;;;;;23.81;46.58;100987.72;5080441;28;20453;-52
2022/07/18 06:29:50;;;;;;;3.03;0.67;;;;;;;23.27;46.49;100981.63;5092478;28;20461;-51
2022/07/18 06:32:17;;;;;;;0.70;0.60;;;;;;;23.66;46.31;100980.69;5090607;28;20471;-52
2022/07/18 06:34:43;;;;;;;1.87;1.03;;;;;;;23.33;46.83;100973.94;5092354;28;20474;-52
2022/07/18 06:37:10;;;;;;;6.23;1.00;;;;;;;23.48;46.32;100977.41;5092321;28;20448;-52
2022/07/18 06:39:36;;;;;;;1.70;0.77;;;;;;;23.84;46.54;100976.63;5090121;28;20470;-52
2022/07/18 06:42:03;;;;;;;0.80;0.67;;;;;;;23.67;45.77;100979.69;5092513;28;20449;-51
2022/07/18 06:44:29;;;;;;;1.43;0.87;;;;;;;24.32;45.33;100984.03;5092255;28;20448;-53
2022/07/18 06:46:57;;;;;;;1.20;1.10;;;;;;;23.99;44.52;100973.78;5091824;28;20449;-51
2022/07/18 06:49:25;;;;;;;7.93;1.00;;;;;;;24.21;45.57;100982.06;5091929;28;20476;-51
2022/07/18 06:51:52;;;;;;;0.80;0.60;;;;;;;24.21;44.39;100979.34;5092424;28;20576;-51
2022/07/18 06:54:20;;;;;;;1.80;0.60;;;;;;;23.81;45.42;100971.41;5092118;28;20467;-51
2022/07/18 06:56:46;;;;;;;9.17;2.43;;;;;;;23.49;46.96;100976.44;5092411;28;20529;-51
2022/07/18 06:59:12;;;;;;;0.80;0.80;;;;;;;24.19;46.30;100974.03;5092686;28;20471;-52
2022/07/18 07:01:39;;;;;;;1.33;0.80;;;;;;;24.36;45.30;100969.22;5092027;28;20449;-52
2022/07/18 07:04:06;;;;;;;0.60;0.40;;;;;;;24.48;45.25;100974.59;5091861;28;20522;-52
2022/07/18 07:06:32;;;;;;;0.97;0.70;;;;;;;23.83;46.54;100971.31;5092177;28;20445;-52
2022/07/18 07:08:59;;;;;;;3.40;0.80;;;;;;;24.41;44.61;100981.50;5091800;28;20461;-52
2022/07/18 07:11:25;;;;;;;24.73;1.27;;;;;;;24.41;43.87;100980.63;5083433;28;20445;-52
2022/07/18 07:13:51;;;;;;;2.90;1.27;;;;;;;24.69;43.99;100980.25;5094478;28;20444;-52
2022/07/18 07:16:18;;;;;;;3.13;0.80;;;;;;;24.55;44.04;100976.88;5096050;28;20807;-51
2022/07/18 07:18:44;;;;;;;0.90;0.53;;;;;;;24.79;42.51;100978.56;5095809;28;20528;-53
2022/07/18 07:21:11;;;;;;;1.10;0.67;;;;;;;25.38;40.99;100986.66;5096055;28;20483;-52
2022/07/18 07:23:45;;;;;;;1.70;0.50;;;;;;;24.99;41.89;100970.72;5095537;28;20512;-51
2022/07/18 07:26:11;;;;;;;1.10;0.80;;;;;;;25.14;40.41;100975.00;5084453;28;20946;-52
2022/07/18 07:28:38;;;;;;;0.70;0.70;;;;;;;25.09;39.92;100972.63;5089028;28;20473;-53
2022/07/18 07:31:05;;;;;;;8.53;0.77;;;;;;;25.20;39.17;100960.00;5076504;28;20540;-53
2022/07/18 07:33:32;;;;;;;1.60;0.70;;;;;;;25.27;40.14;100964.00;5081482;28;20447;-53
2022/07/18 07:35:59;;;;;;;0.97;0.70;;;;;;;25.36;40.02;100958.69;5095872;28;20946;-52
2022/07/18 07:38:28;;;;;;;0.70;0.40;;;;;;;25.48;39.48;100962.28;5095994;28;20833;-52
2022/07/18 07:40:56;;;;;;;5.63;0.87;;;;;;;25.36;39.75;100955.13;5095469;28;20956;-53
2022/07/18 07:43:24;;;;;;;0.80;0.50;;;;;;;25.41;39.67;100950.16;5095163;28;20495;-52
2022/07/18 07:45:52;;;;;;;1.47;0.63;;;;;;;25.81;39.53;100956.00;5095452;28;20461;-52
2022/07/18 07:48:19;;;;;;;1.07;0.70;;;;;;;26.34;38.44;100956.16;5095911;28;20552;-53
2022/07/18 07:50:46;;;;;;;1.70;0.70;;;;;;;26.05;38.53;100964.03;5096375;28;20452;-52
2022/07/18 07:53:13;;;;;;;7.73;0.53;;;;;;;26.22;38.21;100947.13;5095442;28;20455;-52
2022/07/18 07:55:39;;;;;;;2.80;0.60;;;;;;;26.18;37.80;100953.84;5095275;28;20445;-52
2022/07/18 07:58:06;;;;;;;1.43;1.33;;;;;;;26.44;37.89;100953.53;5095329;28;20468;-52
2022/07/18 08:00:32;;;;;;;0.80;0.50;;;;;;;26.52;37.99;100946.44;5082248;28;20459;-52
2022/07/18 08:03:01;;;;;;;0.70;0.50;;;;;;;26.38;37.15;100946.75;5094808;28;20865;-52
2022/07/18 08:05:31;;;;;;;2.80;0.97;;;;;;;26.61;36.58;100944.78;5094995;28;20448;-52
2022/07/18 08:07:59;;;;;;;1.87;1.77;;;;;;;26.80;36.83;100936.75;5094942;28;20517;-53
2022/07/18 08:10:26;;;;;;;0.77;0.57;;;;;;;27.55;36.81;100932.94;5094912;28;20445;-52
2022/07/18 08:12:53;;;;;;;3.60;0.73;;;;;;;27.08;37.05;100926.19;5095118;28;20460;-51
2022/07/18 08:15:20;;;;;;;24.37;1.67;;;;;;;26.98;35.27;100930.69;5081178;28;20951;-53
2022/07/18 08:17:46;;;;;;;2.60;0.50;;;;;;;27.13;36.20;100922.03;5094795;28;20551;-53
2022/07/18 08:20:16;;;;;;;3.43;0.70;;;;;;;27.57;36.93;100932.78;5094740;28;20820;-52
2022/07/18 08:23:02;;;;;;;4.53;0.70;;;;;;;28.15;35.76;100924.78;5093458;28;20484;-53
2022/07/18 08:25:31;;;;;;;0.70;0.50;;;;;;;27.30;35.81;100925.19;5089426;28;20438;-53
2022/07/18 08:27:59;;;;;;;4.03;0.97;;;;;;;27.72;35.48;100920.50;5087452;28;21012;-53
2022/07/18 08:30:26;;;;;;;2.30;0.57;;;;;;;27.78;34.44;100921.81;5089434;28;20458;-53
2022/07/18 08:32:53;;;;;;;1.00;0.90;;;;;;;28.16;33.03;100919.16;5087485;28;20449;-53
2022/07/18 08:35:20;;;;;;;1.67;0.87;;;;;;;27.92;33.84;100924.13;5074829;28;20456;-53
2022/07/18 08:37:48;;;;;;;4.83;2.10;;;;;;;28.29;34.48;100919.78;5074506;28;20469;-53
2022/07/18 08:40:15;;;;;;;0.70;0.50;;;;;;;28.48;33.02;100915.31;5074261;28;20480;-53
2022/07/18 08:42:42;;;;;;;1.03;0.70;;;;;;;28.68;32.38;100918.94;5074250;28;20469;-54
2022/07/18 08:45:28;;;;;;;0.70;0.50;;;;;;;28.53;31.70;100922.09;5074689;28;20446;-52
2022/07/18 08:47:55;;;;;;;4.60;0.90;;;;;;;28.43;31.29;100917.63;5074050;28;20470;-54
2022/07/18 08:50:22;;;;;;;10.10;1.30;;;;;;;28.67;32.66;100911.72;5074923;28;20473;-53
2022/07/18 08:52:49;;;;;;;12.03;1.10;;;;;;;28.46;32.95;100917.34;5074340;28;20460;-53
2022/07/18 08:55:20;;;;;;;11.40;0.77;;;;;;;28.62;33.03;100914.88;5074348;28;20449;-54
2022/07/18 08:57:52;;;;;;;0.60;0.40;;;;;;;29.01;32.60;100912.13;5073807;28;21056;-53
2022/07/18 09:00:21;;;;;;;0.83;0.73;;;;;;;28.92;32.38;100922.13;5074143;28;20445;-54
2022/07/18 09:02:59;;;;;;;1.67;1.30;;;;;;;29.09;32.47;100918.59;5073657;28;20460;-55
2022/07/18 09:05:27;;;;;;;0.87;0.50;;;;;;;28.71;32.34;100921.38;5074115;28;20446;-54
2022/07/18 09:08:19;;;;;;;8.33;0.73;;;;;;;29.29;31.75;100919.41;5073919;28;20505;-54
2022/07/18 09:10:51;;;;;;;1.00;0.90;;;;;;;28.95;31.62;100919.06;5073876;28;20448;-53
2022/07/18 09:13:22;;;;;;;2.53;0.80;;;;;;;29.24;32.22;100901.69;5073592;28;20478;-54
2022/07/18 09:16:03;;;;;;;8.17;1.00;;;;;;;29.09;31.63;100899.44;5073567;28;20442;-53
2022/07/18 09:18:36;;;;;;;2.40;0.43;;;;;;;29.02;31.50;100895.56;5073812;28;20462;-54
2022/07/18 09:21:11;;;;;;;1.80;0.50;;;;;;;29.34;31.43;100906.13;5072375;28;20438;-54
2022/07/18 09:23:40;;;;;;;1.07;0.50;;;;;;;29.44;30.98;100901.47;5076719;28;20484;-54
2022/07/18 09:26:09;;;;;;;0.60;0.50;;;;;;;30.06;30.46;100893.56;5082766;28;20446;-53
2022/07/18 09:28:49;;;;;;;0.80;0.50;;;;;;;29.91;30.82;100895.06;5091486;28;20472;-54
2022/07/18 09:31:35;;;;;;;1.53;0.73;;;;;;;29.52;30.49;100887.06;5080636;28;20469;-54
2022/07/18 09:34:03;;;;;;;0.57;0.37;;;;;;;29.82;28.69;100894.09;5093755;28;20445;-54
2022/07/18 09:36:33;;;;;;;1.67;0.83;;;;;;;30.04;28.55;100893.69;5091823;28;20449;-54
2022/07/18 09:39:00;;;;;;;0.77;0.40;;;;;;;30.11;28.04;100890.34;5093543;28;20491;-54
2022/07/18 09:41:32;;;;;;;29.57;1.00;;;;;;;30.27;27.44;100893.22;5093283;28;20445;-55
2022/07/18 09:44:13;;;;;;;6.93;2.00;;;;;;;30.28;26.78;100898.56;5093290;28;20553;-55
2022/07/18 09:47:00;;;;;;;0.53;0.30;;;;;;;30.69;27.27;100898.09;5079665;28;20810;-56
2022/07/18 09:49:31;;;;;;;1.47;0.50;;;;;;;31.06;26.57;100882.25;5093005;28;20469;-54
2022/07/18 09:52:03;;;;;;;0.57;0.43;;;;;;;31.42;25.99;100883.00;5091839;28;20445;-55
2022/07/18 09:54:43;;;;;;;1.57;0.57;;;;;;;31.27;26.41;100884.66;5093190;28;20452;-55
2022/07/18 09:57:23;;;;;;;1.00;0.63;;;;;;;31.30;25.46;100892.56;5093234;28;20473;-55
2022/07/18 09:59:50;;;;;;;0.80;0.70;;;;;;;31.03;26.43;100882.59;5092773;28;20448;-56
2022/07/18 10:02:16;;;;;;;9.13;0.83;;;;;;;30.84;26.34;100880.03;5088483;28;20455;-55
2022/07/18 10:04:44;;;;;;;0.80;0.80;;;;;;;31.53;25.34;100876.38;5093207;28;20495;-53
2022/07/18 10:07:11;;;;;;;7.40;0.60;;;;;;;31.85;24.62;100881.16;5093192;28;20444;-54
2022/07/18 10:09:38;;;;;;;0.50;0.40;;;;;;;31.96;24.08;100891.00;5083154;28;20501;-54
2022/07/18 10:12:05;;;;;;;0.83;0.70;;;;;;;32.21;24.62;100889.13;5088903;28;20457;-55
2022/07/18 10:14:32;;;;;;;0.73;0.73;;;;;;;32.21;24.52;100891.88;5092904;28;20447;-57
2022/07/18 10:16:59;;;;;;;0.67;0.50;;;;;;;31.69;25.22;100884.69;5092463;28;20484;-55
2022/07/18 10:19:26;;;;;;;0.60;0.43;;;;;;;31.39;24.15;100886.09;5092924;28;20465;-54
2022/07/18 10:21:55;;;;;;;0.70;0.60;;;;;;;31.45;24.92;100892.81;5092409;28;20449;-53
2022/07/18 10:24:25;;;;;;;1.33;0.93;;;;;;;31.91;24.35;100891.47;5092701;28;20538;-54
2022/07/18 10:27:12;;;;;;;0.67;0.50;;;;;;;31.99;24.55;100896.16;5078637;28;20953;-55
2022/07/18 10:29:38;;;;;;;0.50;0.40;;;;;;;31.86;24.61;100890.25;5092365;28;20807;-55
2022/07/18 10:32:07;;;;;;;0.60;0.60;;;;;;;31.47;24.35;100883.38;5080024;28;20471;-54
2022/07/18 10:34:35;;;;;;;27.33;1.40;;;;;;;32.22;24.76;100888.13;5092123;28;20451;-55
2022/07/18 10:37:03;;;;;;;0.70;0.50;;;;;;;31.90;24.86;100876.00;5092626;28;20942;-55
2022/07/18 10:39:38;;;;;;;0.60;0.50;;;;;;;32.48;25.27;100883.34;5092354;28;20856;-54
2022/07/18 10:42:10;;;;;;;1.67;0.80;;;;;;;31.53;24.06;100877.22;5092591;28;20436;-55
2022/07/18 10:44:40;;;;;;;1.10;0.70;;;;;;;32.10;24.43;100879.31;5091187;28;20572;-55
2022/07/18 10:47:20;;;;;;;1.13;0.80;;;;;;;31.93;23.91;100881.16;5091504;28;20452;-55
2022/07/18 10:49:46;;;;;;;0.70;0.50;;;;;;;32.04;24.16;100872.59;5091856;28;20968;-54
2022/07/18 10:52:33;;;;;;;0.50;0.40;;;;;;;32.15;23.01;100868.66;5092666;28;20523;-56
2022/07/18 10:55:08;;;;;;;1.30;0.70;;;;;;;32.70;23.41;100865.28;5083928;28;20957;-55
2022/07/18 10:57:37;;;;;;;0.50;0.40;;;;;;;32.32;22.94;100862.16;5088113;28;20489;-55
2022/07/18 11:00:10;;;;;;;0.60;0.40;;;;;;;32.63;23.22;100869.78;5089837;28;20779;-54
2022/07/18 11:02:46;;;;;;;5.23;0.70;;;;;;;32.69;22.80;100855.28;5089495;28;21011;-54
2022/07/18 11:05:24;;;;;;;1.00;0.57;;;;;;;32.55;23.43;100864.25;5092041;28;20491;-54
2022/07/18 11:07:57;;;;;;;0.80;0.70;;;;;;;33.25;23.01;100865.38;5091944;28;20890;-54
2022/07/18 11:10:54;;;;;;;0.80;0.50;;;;;;;32.82;22.76;100852.03;5092002;28;20559;-55
2022/07/18 11:13:30;;;;;;;8.13;0.60;;;;;;;32.86;23.30;100846.00;5090248;28;20535;-54
2022/07/18 11:16:00;;;;;;;1.07;1.00;;;;;;;32.76;23.09;100838.91;5079061;28;20434;-55
2022/07/18 11:18:26;;;;;;;1.13;0.73;;;;;;;32.68;23.89;100837.91;5086185;28;20469;-55
2022/07/18 11:20:53;;;;;;;0.60;0.60;;;;;;;32.12;23.13;100839.59;5091851;28;20445;-54
2022/07/18 11:23:22;;;;;;;4.20;0.60;;;;;;;32.56;22.62;100846.69;5091987;28;20452;-57
2022/07/18 11:25:56;;;;;;;0.60;0.57;;;;;;;32.74;22.74;100841.84;5083840;28;20446;-54
2022/07/18 11:28:27;;;;;;;0.70;0.60;;;;;;;32.91;22.72;100848.25;5088329;28;20461;-55
2022/07/18 11:31:08;;;;;;;0.80;0.80;;;;;;;32.35;22.59;100830.72;5091681;28;20495;-56
2022/07/18 11:33:41;;;;;;;2.60;0.60;;;;;;;32.51;23.20;100829.84;5091030;28;20469;-55